Data for 09/03/2008

Time Sea-Level Adjusted Pressure Absolute Pressure Temperature Relative Humidity Dew Point   
(mb) (inHg) (mb) (inHg) (C) (F) (%) (C) (F)
00:05 1022 30.18 852 25.16 8 46.3 57 -0.1 31.9
00:10 1022 30.18 852 25.16 8 46.4 58 0.3 32.5
00:15 1022 30.18 852 25.16 7.9 46.2 58 0.1 32.2
00:20 1022 30.18 851 25.13 7.6 45.7 59 0 32.1
00:25 1022 30.18 851 25.13 7.5 45.5 59 -0.1 31.8
00:30 1022 30.18 851 25.13 7.6 45.7 57 -0.4 31.3
00:35 1022 30.18 851 25.13 7.8 46.1 54 -0.7 30.7
00:40 1022 30.18 851 25.13 7.9 46.3 57 -0.1 31.8
00:45 1022 30.18 851 25.13 7.9 46.3 57 -0.1 31.8
00:50 1022 30.18 851 25.13 7.9 46.3 57 0 32
00:55 1022 30.18 851 25.13 7.9 46.2 57 -0.1 31.9
01:00 1022 30.18 851 25.13 8.1 46.5 52 -1.1 30
01:05 1022 30.18 851 25.13 8.5 47.4 51 -1.1 30
01:10 1022 30.18 851 25.13 8.8 47.9 48 -1.4 29.4
01:15 1022 30.18 851 25.13 9.3 48.7 46 -1.8 28.8
01:20 1022 30.18 851 25.13 9.7 49.4 45 -1.6 29.1
01:25 1022 30.18 851 25.13 9.8 49.6 45 -1.6 29.2
01:30 1022 30.18 851 25.13 9.7 49.5 46 -1.4 29.5
01:35 1022 30.18 851 25.13 9.6 49.2 46 -1.4 29.5
01:40 1022 30.18 851 25.13 9.6 49.2 47 -1.1 30
01:45 1022 30.18 851 25.13 9.5 49.2 47 -1.2 29.8
01:50 1022 30.18 851 25.13 9.5 49 48 -0.9 30.3
01:55 1022 30.18 851 25.13 9.3 48.8 48 -1 30.2
02:00 1022 30.18 851 25.13 9.3 48.7 49 -0.9 30.4
02:05 1022 30.18 851 25.13 9.4 48.8 49 -0.8 30.5
02:10 1022 30.18 851 25.13 9.3 48.8 50 -0.5 31.1
02:15 1022 30.18 851 25.13 9.1 48.3 51 -0.5 31.1
02:20 1022 30.18 851 25.13 9.1 48.5 51 -0.5 31
02:25 1022 30.18 851 25.13 9.2 48.6 51 -0.4 31.3
02:30 1022 30.18 851 25.13 9.1 48.4 52 -0.3 31.5
02:35 1022 30.18 851 25.13 8.9 48.1 53 -0.2 31.7
02:40 1022 30.18 851 25.13 8.6 47.4 53 -0.4 31.3
02:45 1022 30.18 851 25.13 8.5 47.2 54 -0.4 31.3
02:50 1022 30.18 851 25.13 8.3 47 55 -0.2 31.6
02:55 1022 30.18 851 25.13 8.3 46.9 54 -0.5 31.1
03:00 1022 30.18 851 25.13 8.4 47.1 54 -0.4 31.2
03:05 1022 30.18 851 25.13 8.4 47.1 55 -0.2 31.6
03:10 1022 30.18 851 25.13 8.3 46.9 55 -0.2 31.7
03:15 1021 30.15 851 25.13 8.3 46.9 54 -0.4 31.3
03:20 1021 30.15 851 25.13 8.3 47 54 -0.4 31.3
03:25 1021 30.15 851 25.13 8.4 47.1 56 0.1 32.2
03:30 1021 30.15 851 25.13 8.3 46.9 56 0.1 32.2
03:35 1021 30.15 851 25.13 8.2 46.8 58 0.5 32.9
03:40 1021 30.15 851 25.13 7.9 46.3 61 0.9 33.7
03:45 1021 30.15 851 25.13 7.8 46 62 1 33.8
03:50 1021 30.15 851 25.13 7.8 46.1 61 0.8 33.5
03:55 1021 30.15 851 25.13 7.9 46.2 61 0.9 33.7
04:00 1022 30.18 851 25.13 7.7 45.8 63 1 33.8
04:05 1022 30.18 851 25.13 7.5 45.5 64 1.2 34.1
04:10 1022 30.18 851 25.13 7.4 45.3 65 1.3 34.4
04:15 1022 30.18 851 25.13 7.3 45.1 65 1.1 34
04:20 1022 30.18 851 25.13 7.4 45.4 64 1 33.8
04:25 1022 30.18 851 25.13 7.6 45.6 64 1.3 34.4
04:30 1022 30.18 851 25.13 7.8 46 57 -0.2 31.6
04:35 1022 30.18 851 25.13 8.3 47 58 0.7 33.2
04:40 1022 30.18 851 25.13 8.2 46.8 62 1.3 34.4
04:45 1022 30.18 851 25.13 8.1 46.5 63 1.5 34.7
04:50 1022 30.18 851 25.13 8 46.4 64 1.6 34.9
04:55 1022 30.18 851 25.13 7.9 46.3 58 0.3 32.5
05:00 1022 30.18 851 25.13 8.3 47 55 -0.2 31.6
05:05 1022 30.18 851 25.13 8.5 47.2 57 0.5 32.9
05:10 1022 30.18 851 25.13 8.4 47 55 -0 31.9
05:15 1022 30.18 851 25.13 8.4 47.1 59 1 33.7
05:20 1022 30.18 851 25.13 8.2 46.7 61 1.2 34.1
05:25 1022 30.18 851 25.13 7.8 46.1 64 1.5 34.8
05:30 1022 30.18 851 25.13 7.6 45.6 62 0.8 33.5
05:35 1022 30.18 851 25.13 7.8 46 62 1 33.9
05:40 1022 30.18 851 25.13 7.9 46.2 65 1.8 35.2
05:45 1022 30.18 851 25.13 7.6 45.8 65 1.4 34.6
05:50 1022 30.18 851 25.13 7.6 45.6 67 1.9 35.3
05:55 1022 30.18 851 25.13 7.5 45.5 66 1.5 34.8
06:00 1022 30.18 851 25.13 7.6 45.7 65 1.6 34.8
06:05 1022 30.18 851 25.13 7.6 45.6 67 2 35.5
06:10 1022 30.18 851 25.13 7.6 45.6 67 1.8 35.2
06:15 1022 30.18 851 25.13 7.5 45.6 65 1.4 34.6
06:20 1022 30.18 851 25.13 7.6 45.6 63 1 33.9
06:25 1022 30.18 851 25.13 7.9 46.2 64 1.5 34.7
06:30 1022 30.18 851 25.13 7.9 46.2 64 1.5 34.8
06:35 1022 30.18 851 25.13 7.8 46.1 65 1.7 35
06:40 1022 30.18 851 25.13 7.7 45.9 66 1.7 35
06:45 1022 30.18 851 25.13 7.6 45.8 67 1.9 35.5
06:50 1022 30.18 851 25.13 7.7 45.9 66 1.8 35.2
06:55 1022 30.18 851 25.13 7.6 45.7 67 2 35.5
07:00 1022 30.18 851 25.13 7.6 45.6 69 2.3 36.2
07:05 1022 30.18 851 25.13 7.6 45.7 68 2.2 35.9
07:10 1022 30.18 851 25.13 7.8 46 67 2.1 35.8
07:15 1022 30.18 851 25.13 8 46.4 67 2.2 36
07:20 1022 30.18 851 25.13 8 46.3 70 2.8 37
07:25 1022 30.18 851 25.13 7.4 45.4 70 2.4 36.4
07:30 1022 30.18 852 25.16 7.5 45.4 69 2.1 35.8
07:35 1022 30.18 852 25.16 7.7 45.8 63 1 33.9
07:40 1022 30.18 852 25.16 8.1 46.5 63 1.4 34.6
07:45 1022 30.18 852 25.16 8.4 47.1 65 2.2 35.9
07:50 1022 30.18 852 25.16 8.5 47.4 60 1.2 34.2
07:55 1022 30.18 852 25.16 8.6 47.5 60 1.3 34.4
08:00 1022 30.18 852 25.16 8.6 47.4 61 1.4 34.5
08:05 1022 30.18 852 25.16 8.6 47.4 63 2 35.6
08:10 1022 30.18 852 25.16 8.7 47.7 63 2 35.6
08:15 1022 30.18 852 25.16 8.6 47.5 67 2.9 37.3
08:20 1023 30.21 852 25.16 8.3 46.9 69 2.9 37.2
08:25 1023 30.21 852 25.16 8.1 46.6 66 2.3 36.1
08:30 1023 30.21 852 25.16 8.3 47 65 2.2 35.9
08:35 1023 30.21 852 25.16 8.5 47.3 64 2 35.7
08:40 1023 30.21 852 25.16 8.8 47.9 63 2.3 36.1
08:45 1022 30.18 852 25.16 9.1 48.4 65 2.8 37.1
08:50 1022 30.18 852 25.16 9.2 48.6 67 3.5 38.2
08:55 1022 30.18 852 25.16 9 48.2 69 3.7 38.6
09:00 1022 30.18 852 25.16 9.3 48.8 65 3 37.4
09:05 1022 30.18 852 25.16 9.9 49.7 66 3.9 39
09:10 1022 30.18 852 25.16 10.3 50.5 62 3.3 37.9
09:15 1022 30.18 852 25.16 10.6 51 62 3.7 38.6
09:20 1022 30.18 852 25.16 10.8 51.5 56 2.5 36.5
09:25 1022 30.18 852 25.16 10.8 51.4 53 1.7 35.1
09:30 1022 30.18 852 25.16 11.2 52.2 53 2 35.7
09:35 1022 30.18 852 25.16 11.8 53.2 50 1.8 35.2
09:40 1022 30.18 851 25.13 12.5 54.4 46 1.3 34.4
09:45 1022 30.18 851 25.13 12.6 54.7 47 1.5 34.8
09:50 1022 30.18 851 25.13 12.4 54.4 48 1.7 35
09:55 1022 30.18 851 25.13 12.4 54.2 46 1.1 34
10:00 1022 30.18 851 25.13 12.2 54 49 1.8 35.2
10:05 1022 30.18 851 25.13 11.9 53.4 53 2.6 36.6
10:10 1022 30.18 851 25.13 11.1 52 54 2.2 36
10:15 1022 30.18 851 25.13 11 51.7 53 1.8 35.2
10:20 1022 30.18 851 25.13 11.2 52.1 53 1.9 35.4
10:25 1022 30.18 851 25.13 11.2 52.2 53 2.2 35.9
10:30 1022 30.18 851 25.13 11.5 52.7 53 2.3 36.2
10:35 1022 30.18 851 25.13 11.4 52.6 53 2.3 36.2
10:40 1022 30.18 851 25.13 11.2 52.1 56 2.7 36.8
10:45 1022 30.18 851 25.13 11.2 52.1 54 2.1 35.9
10:50 1022 30.18 851 25.13 11.1 52 53 2 35.7
10:55 1022 30.18 851 25.13 11.3 52.3 54 2.4 36.4
11:00 1022 30.18 851 25.13 11.3 52.3 51 1.4 34.6
11:05 1022 30.18 851 25.13 11.6 52.9 51 1.8 35.3
11:10 1022 30.18 851 25.13 11.9 53.4 50 2 35.5
11:15 1022 30.18 851 25.13 11.9 53.4 51 2.1 35.7
11:20 1022 30.18 851 25.13 11.8 53.2 51 2.1 35.8
11:25 1022 30.18 851 25.13 11.6 52.8 50 1.6 34.9
11:30 1022 30.18 851 25.13 11.6 52.9 51 1.8 35.3
11:35 1022 30.18 851 25.13 11.7 53 50 1.7 35
11:40 1022 30.18 851 25.13 12.1 53.7 49 1.8 35.2
11:45 1022 30.18 851 25.13 12.1 53.7 50 2 35.5
11:50 1022 30.18 851 25.13 11.9 53.5 49 1.7 35
11:55 1022 30.18 851 25.13 12.3 54.1 46 1.2 34.2
12:00 1022 30.18 851 25.13 12.6 54.8 45 1 33.8
12:05 1022 30.18 851 25.13 12.7 54.8 43 0.4 32.7
12:10 1022 30.18 851 25.13 13.3 56 41 0.4 32.7
12:15 1022 30.18 851 25.13 14.7 58.5 36 0 32
12:20 1021 30.15 851 25.13 15.4 59.6 36 0.3 32.5
12:25 1021 30.15 851 25.13 15.5 59.9 36 0.7 33.2
12:30 1021 30.15 851 25.13 15.2 59.4 36 0.3 32.5
12:35 1021 30.15 851 25.13 15.4 59.7 33 -0.6 31
12:40 1021 30.15 851 25.13 15.8 60.4 32 -0.9 30.3
12:45 1021 30.15 851 25.13 15.6 60 33 -0.7 30.8
12:50 1021 30.15 851 25.13 15.2 59.3 34 -0.7 30.8
12:55 1021 30.15 851 25.13 15.4 59.7 32 -1.3 29.6
13:00 1021 30.15 851 25.13 15.2 59.3 32 -1.3 29.7
13:05 1021 30.15 851 25.13 16.1 60.9 30 -1.5 29.3
13:10 1021 30.15 851 25.13 17 62.5 29 -1.1 30
13:15 1021 30.15 850 25.1 16.7 62.1 30 -0.6 30.9
13:20 1021 30.15 850 25.1 16.5 61.7 30 -1 30.2
13:25 1021 30.15 850 25.1 16.3 61.3 31 -0.6 31
13:30 1021 30.15 850 25.1 17.1 62.8 28 -1.4 29.6
13:35 1021 30.15 850 25.1 17 62.7 30 -0.5 31.1
13:40 1021 30.15 850 25.1 16.3 61.3 30 -1.3 29.6
13:45 1021 30.15 850 25.1 17.6 63.7 28 -0.9 30.4
13:50 1021 30.15 850 25.1 17.5 63.5 27 -1.7 28.9
13:55 1021 30.15 850 25.1 16.6 61.9 29 -1.4 29.5
14:00 1021 30.15 850 25.1 16.9 62.3 29 -1 30.2
14:05 1021 30.15 850 25.1 17.2 62.9 26 -2.5 27.5
14:10 1021 30.15 850 25.1 17.8 64.1 27 -1.3 29.6
14:15 1021 30.15 850 25.1 17.6 63.8 28 -1 30.3
14:20 1021 30.15 850 25.1 18.3 65 26 -1.4 29.5
14:25 1021 30.15 850 25.1 17.7 63.8 26 -1.7 28.9
14:30 1021 30.15 850 25.1 17.8 64.1 26 -1.6 29.1
14:35 1021 30.15 850 25.1 17.8 64.1 25 -2.3 27.8
14:40 1021 30.15 850 25.1 18.5 65.3 26 -1.5 29.3
14:45 1020 30.12 850 25.1 18.3 64.9 26 -1.5 29.3
14:50 1020 30.12 850 25.1 17.9 64.3 26 -2 28.5
14:55 1020 30.12 850 25.1 18.3 64.9 25 -1.9 28.5
15:00 1020 30.12 850 25.1 18.4 65 25 -1.8 28.7
15:05 1020 30.12 850 25.1 18.8 65.8 24 -1.9 28.6
15:10 1020 30.12 849 25.07 18.1 64.6 25 -2.1 28.2
15:15 1020 30.12 849 25.07 18.6 65.4 25 -1.8 28.7
15:20 1020 30.12 849 25.07 17.7 63.9 26 -1.9 28.6
15:25 1020 30.12 849 25.07 18.2 64.8 26 -1.6 29.1
15:30 1020 30.12 849 25.07 18.3 65 25 -1.9 28.6
15:35 1020 30.12 849 25.07 18.7 65.7 24 -2.2 28.1
15:40 1020 30.12 849 25.07 19.5 67 24 -1.6 29.2
15:45 1020 30.12 849 25.07 19.5 67.1 26 -0.5 31
15:50 1020 30.12 849 25.07 18.5 65.3 27 -0.8 30.6
15:55 1020 30.12 849 25.07 18 64.3 27 -1.3 29.6
16:00 1020 30.12 849 25.07 16.8 62.3 30 -0.8 30.5
16:05 1020 30.12 849 25.07 16.2 61.2 31 -0.9 30.4
16:10 1020 30.12 849 25.07 15.4 59.7 43 2.9 37.2
16:15 1020 30.12 849 25.07 13.7 56.7 49 3.3 38
16:20 1020 30.12 850 25.1 12.9 55.2 53 3.7 38.6
16:25 1020 30.12 849 25.07 13.1 55.6 59 5.4 41.7
16:30 1020 30.12 849 25.07 12.9 55.1 55 4 39.2
16:35 1020 30.12 849 25.07 13.5 56.3 45 2 35.5
16:40 1020 30.12 849 25.07 13.8 56.8 48 3.1 37.6
16:45 1020 30.12 849 25.07 14.3 57.7 44 2.4 36.3
16:50 1020 30.12 849 25.07 15.2 59.3 42 2.4 36.3
16:55 1020 30.12 849 25.07 15.2 59.4 43 2.9 37.2
17:00 1020 30.12 849 25.07 16 60.7 34 0.2 32.4
17:05 1020 30.12 849 25.07 15.9 60.6 41 2.8 37
17:10 1020 30.12 849 25.07 15 59 38 0.9 33.7
17:15 1020 30.12 849 25.07 14.9 58.8 43 2.7 36.8
17:20 1020 30.12 849 25.07 15.3 59.5 38 1.3 34.4
17:25 1020 30.12 849 25.07 14.7 58.4 41 1.7 35.1
17:30 1020 30.12 849 25.07 14.9 58.9 40 1.5 34.8
17:35 1020 30.12 849 25.07 14.8 58.6 41 1.9 35.3
17:40 1020 30.12 849 25.07 14.9 58.8 41 1.7 35.1
17:45 1020 30.12 849 25.07 15.3 59.5 39 1.6 34.8
17:50 1020 30.12 849 25.07 15 59 40 1.7 35
17:55 1020 30.12 849 25.07 14.7 58.4 41 1.6 34.8
18:00 1020 30.12 849 25.07 14.6 58.3 41 1.5 34.6
18:05 1020 30.12 849 25.07 14.5 58.1 40 1.2 34.1
18:10 1020 30.12 849 25.07 14.6 58.3 41 1.5 34.8
18:15 1020 30.12 849 25.07 14.7 58.5 42 1.9 35.4
18:20 1020 30.12 849 25.07 14.5 58 42 1.7 35.1
18:25 1020 30.12 849 25.07 14.2 57.6 42 1.5 34.7
18:30 1020 30.12 849 25.07 14 57.2 41 1.2 34.2
18:35 1020 30.12 849 25.07 14 57.1 42 1.3 34.3
18:40 1020 30.12 849 25.07 14.1 57.3 42 1.5 34.7
18:45 1020 30.12 849 25.07 14.2 57.5 39 0.4 32.8
18:50 1020 30.12 849 25.07 14.2 57.6 41 1.4 34.5
18:55 1020 30.12 849 25.07 14.3 57.8 42 1.7 35.1
19:00 1020 30.12 849 25.07 14.3 57.7 43 1.9 35.5
19:05 1020 30.12 849 25.07 14.3 57.7 42 1.6 34.8
19:10 1020 30.12 849 25.07 14.3 57.7 42 1.5 34.7
19:15 1020 30.12 849 25.07 14.1 57.5 45 2.5 36.6
19:20 1020 30.12 849 25.07 14 57.1 46 2.7 36.8
19:25 1020 30.12 849 25.07 13.9 57 47 3 37.4
19:30 1020 30.12 849 25.07 13.8 56.9 45 2.2 36
19:35 1020 30.12 849 25.07 13.7 56.7 47 2.5 36.6
19:40 1020 30.12 849 25.07 13.6 56.5 46 2.4 36.2
19:45 1019 30.09 849 25.07 13.4 56.2 48 2.9 37.2
19:50 1019 30.09 849 25.07 13.2 55.7 49 2.7 36.8
19:55 1019 30.09 849 25.07 12.9 55.3 51 3 37.4
20:00 1019 30.09 849 25.07 12.8 55 49 2.6 36.6
20:05 1019 30.09 849 25.07 12.6 54.7 49 2.4 36.3
20:10 1019 30.09 849 25.07 12.5 54.4 50 2.3 36.1
20:15 1019 30.09 849 25.07 12.5 54.4 49 2.2 36
20:20 1020 30.12 849 25.07 12.3 54.2 51 2.4 36.4
20:25 1020 30.12 849 25.07 12.3 54.1 50 2.3 36.1
20:30 1020 30.12 849 25.07 12.3 54.1 52 2.6 36.7
20:35 1020 30.12 849 25.07 12.1 53.8 52 2.7 36.9
20:40 1020 30.12 849 25.07 12 53.6 53 2.8 37.1
20:45 1020 30.12 849 25.07 11.9 53.5 52 2.6 36.6
20:50 1020 30.12 849 25.07 11.8 53.3 52 2.5 36.4
20:55 1020 30.12 849 25.07 11.7 53.1 55 2.9 37.2
21:00 1020 30.12 849 25.07 11.5 52.7 55 2.9 37.2
21:05 1020 30.12 849 25.07 11.4 52.5 55 2.6 36.7
21:10 1020 30.12 849 25.07 11.3 52.4 55 2.6 36.8
21:15 1020 30.12 849 25.07 11.3 52.3 55 2.5 36.5
21:20 1020 30.12 849 25.07 11.2 52.1 54 2.2 35.9
21:25 1020 30.12 849 25.07 11.1 51.9 56 2.6 36.7
21:30 1020 30.12 849 25.07 11 51.7 56 2.6 36.7
21:35 1020 30.12 849 25.07 10.8 51.5 56 2.5 36.4
21:40 1020 30.12 850 25.1 10.8 51.4 56 2.3 36.2
21:45 1020 30.12 850 25.1 11 51.8 53 1.9 35.5
21:50 1020 30.12 850 25.1 11.3 52.3 52 1.9 35.4
21:55 1020 30.12 850 25.1 11.3 52.4 53 2.3 36.1
22:00 1020 30.12 850 25.1 11.2 52.2 54 2.2 35.9
22:05 1020 30.12 850 25.1 11.1 52.1 54 2.3 36.2
22:10 1020 30.12 850 25.1 11 51.8 56 2.5 36.6
22:15 1020 30.12 850 25.1 10.8 51.5 56 2.6 36.6
22:20 1020 30.12 849 25.07 10.7 51.3 57 2.6 36.7
22:25 1020 30.12 849 25.07 10.6 51.1 56 2.2 36
22:30 1020 30.12 849 25.07 10.6 51.1 56 2.3 36.1
22:35 1020 30.12 850 25.1 10.5 50.9 56 2.2 35.9
22:40 1020 30.12 850 25.1 10.4 50.8 57 2.3 36.1
22:45 1020 30.12 850 25.1 10.4 50.7 56 2 35.6
22:50 1020 30.12 850 25.1 10.3 50.5 57 2.2 35.9
22:55 1020 30.12 850 25.1 10 50 59 2.3 36.2
23:00 1020 30.12 850 25.1 9.7 49.4 61 2.5 36.4
23:05 1020 30.12 850 25.1 9.5 49 62 2.5 36.5
23:10 1020 30.12 850 25.1 9.3 48.7 61 2.2 36
23:15 1021 30.15 850 25.1 9.3 48.8 60 2 35.5
23:20 1021 30.15 850 25.1 9.5 49.1 59 2 35.5
23:25 1021 30.15 850 25.1 9.6 49.3 59 2.1 35.7
23:30 1021 30.15 850 25.1 9.6 49.2 59 1.9 35.5
23:35 1021 30.15 850 25.1 9.5 49.1 59 1.8 35.3
23:40 1021 30.15 850 25.1 9.4 49 59 1.9 35.5
23:45 1021 30.15 850 25.1 9.5 49.1 58 1.7 35.1
23:50 1021 30.15 850 25.1 9.6 49.2 59 1.9 35.4
23:55 1021 30.15 850 25.1 9.4 49 60 2 35.6
24:00 1021 30.15 850 25.1 9.2 48.5 61 2.2 35.9